Airfield :
LOGIN :

Register | Disclaimer

   EN    FR    IT 

 










Legend :    VFR   Marginal VFR   IFR   Intensive IFR   Very Intensive IFR
Visi :
Ceiling :
>= 8 km
>= 3000ft
5 to 8 km
1000 to 3000 ft
1500m to 5 km
500 to 1000 ft
800 to 1500m
200 to 500 ft
< 800m
< 200 ft
Symbols :   Thunderstorms  Fog  Heavy snow  Heavy precipitations  Wind > 20 kt
SIGMETs :     Misc.  Thunderstorms  Icing  Turbulence  Mountain Waves  Volcanic Ashes






- Airport Elevation : 18 ft
- IATA code : AJA


LFKJ - Ajaccio

CURRENT METAR :
  • 152000Z AUTO 10005KT 070V130 9999 FEW025/// SCT034/// OVC060/// ///CB 10/08 Q1005 TEMPO VRB15G35KT 3000 TSRA

EXPIRED METARs :
  • 151930Z AUTO 08004KT 010V180 9999 4200 RA SCT037/// BKN054/// BKN094/// ///CB 10/08 Q1005 TEMPO VRB15G35KT 3000 TSRA
  • 151900Z AUTO 06005KT 9999 FEW026/// BKN052/// BKN064/// ///CB 10/08 Q1004 TEMPO VRB15G35KT 3000 TSRA
  • 151830Z AUTO VRB05KT 4100 RA BR FEW008/// BKN027/// BKN032/// ///CB 10/09 Q1004 TEMPO VRB15G35KT TSRA
  • 151800Z AUTO 03006KT 9999 BKN033/// OVC040/// ///CB 10/08 Q1003 TEMPO VRB15G35KT 3000 TSRA
  • 151730Z AUTO 03005KT 7000 -RA FEW036/// BKN044/// BKN054/// ///CB 10/08 Q1003 TEMPO VRB15G35KT 3000 TSRA

TAF TAF LFKJ
Valid from the 15 at 15:00 until the 16 at 15:00 UTC


151400Z 1515/1615 VRB02KT 9999 FEW023 FEW050TCU BKN070
TEMPO 1517/1524 SHRA SCT017 FEW025CB BKN035
PROB40 1517/1524 VRB15G35KT 3000 TSRA SCT013 BKN020CB BKN033
BECMG 1522/1524 05006KT NSC
ATIS : +33 4 95 23 59 85



MET'MAP, your aeronautical weather chart ! - Copyright ORBIFLY December 2007 - Disclaimer

ORBIFLY MET'MAP TEAM :

Programming & Development : Alexandra Zaïnal
Concept & Development : Baudouin d'Aumeries
Co-Development & Prog : Marc-Olivier Méhu
Technical & hardware support : Manuel Goepfert

Contact : metmap@orbifly.com




SOURCES & CREDITS :

   NOAA